Bosporus — V2QY — position and weather

sailwx.info

Track history (hours):
 
Tides and Currents Weather Stations Pressure Air Temp Water Temp Dewpoint Dewpoint Depression Visibility Wind Speed Wind Dir Waves Ship Positions

Bosporus

Last reported at 2015-May-29 21:28 UTC. Time now 2015-May-29 22:29 UTC.
Position N 43°26' E 004°53'.

Length 100 m; draft 4.1 m.

Type: Cargo ship. MMSI: 304010802.

Date/timePositionNaut miles runAvg speedWind from/ knotsBaromVisibWave heightAir tempDewpointWater temp
2015-May-29 21:28N 43°26' E 004°53'0 0.0
2015-May-29 17:11N 43°26' E 004°53'0 0.0
2015-May-29 16:29N 43°26' E 004°53'0 0.0
2015-May-29 15:32N 43°26' E 004°53'0 0.0
2015-May-29 14:23N 43°26' E 004°53'0 0.0
2015-May-29 13:32N 43°26' E 004°53'0 0.0
2015-May-29 12:32N 43°26' E 004°53'3 2.6
2015-May-29 11:32N 43°25' E 004°57'0 0.0
2015-May-29 10:32N 43°25' E 004°57'0 0.0
2015-May-29 09:29N 43°25' E 004°57'0 0.0
2015-May-29 08:32N 43°25' E 004°57'0 0.0
2015-May-29 07:32N 43°25' E 004°57'0 0.0
2015-May-29 06:32N 43°25' E 004°57'0 0.0
2015-May-29 05:32N 43°25' E 004°57'0 0.0
2015-May-29 04:32N 43°25' E 004°57'0 0.0
2015-May-29 03:32N 43°25' E 004°57'0 0.0
2015-May-29 02:32N 43°25' E 004°57'0 0.0
2015-May-29 01:32N 43°25' E 004°57'0 0.0
2015-May-29 00:32N 43°25' E 004°57'0 0.0
2015-May-28 23:32N 43°25' E 004°57'0 0.0
2015-May-28 22:32N 43°25' E 004°57'0 0.0
2015-May-28 21:32N 43°25' E 004°57'0 0.1
2015-May-28 20:32N 43°25' E 004°57'0 0.0
2015-May-28 19:32N 43°25' E 004°57'0 0.0
2015-May-28 18:32N 43°25' E 004°57'0 0.0
2015-May-28 17:32N 43°25' E 004°57'0 0.0
2015-May-28 16:32N 43°25' E 004°57'0 0.0
2015-May-28 15:32N 43°25' E 004°57'0 0.0
2015-May-28 14:32N 43°25' E 004°57'0 0.0
2015-May-28 13:32N 43°25' E 004°57'0 0.0
2015-May-28 12:32N 43°25' E 004°57'0 0.0
2015-May-28 11:32N 43°25' E 004°57'0 0.0
2015-May-28 10:32N 43°25' E 004°57'0 0.1
2015-May-28 09:32N 43°24' E 004°57'0 0.0
2015-May-28 08:32N 43°24' E 004°57'0 0.0
2015-May-28 07:32N 43°24' E 004°57'0 0.0
2015-May-28 06:32N 43°24' E 004°57'0 0.0
2015-May-28 05:29N 43°24' E 004°57'0 0.0
2015-May-28 04:32N 43°24' E 004°57'0 0.0
2015-May-28 03:32N 43°24' E 004°57'0 0.0
2015-May-28 02:32N 43°24' E 004°57'0 0.1
2015-May-28 01:32N 43°24' E 004°57'7 6.7
2015-May-28 00:33N 43°18' E 004°60'8 8.1
2015-May-27 23:33N 43°10' E 005°01'1111.2
2015-May-27 22:33N 43°02' E 004°50'1110.9
2015-May-27 21:33N 42°54' E 004°40'184 3.9
2015-May-25 22:18N 40°55' E 001°31'910.1
2015-May-25 21:24N 41°00' E 001°41'19110.4
2015-May-25 03:06N 43°11' E 004°47'610.5
2015-May-25 02:33N 43°16' E 004°52'9 8.5
2015-May-25 01:33N 43°24' E 004°53'1 0.6
2015-May-24 23:17N 43°26' E 004°53'0 0.0
2015-May-24 18:11N 43°26' E 004°53'0 0.0
2015-May-24 17:23N 43°26' E 004°53'0 0.0
2015-May-24 16:23N 43°26' E 004°53'0 0.0
2015-May-24 12:11N 43°26' E 004°53'0 0.0
2015-May-23 19:05N 43°26' E 004°53'1 0.3
2015-May-23 15:33N 43°25' E 004°53'6 6.4
2015-May-23 14:33N 43°19' E 004°57'  
2015-May-20 10:26N 43°20' E 004°56'6 2.6
2015-May-20 08:19N 43°26' E 004°54'  
Track history (hours):
 
Tides and Currents Weather Stations Pressure Air Temp Water Temp Dewpoint Dewpoint Depression Visibility Wind Speed Wind Dir Waves Ship Positions

Bosporus

Last reported at 2015-May-29 21:28 UTC. Time now 2015-May-29 22:29 UTC.
Position N 43°26' E 004°53'.

Length 100 m; draft 4.1 m.

Type: Cargo ship. MMSI: 304010802.

Date/timePositionNaut miles runAvg speedWind from/ knotsBaromVisibWave heightAir tempDewpointWater temp
2015-May-29 21:28N 43°26' E 004°53'0 0.0
2015-May-29 17:11N 43°26' E 004°53'0 0.0
2015-May-29 16:29N 43°26' E 004°53'0 0.0
2015-May-29 15:32N 43°26' E 004°53'0 0.0
2015-May-29 14:23N 43°26' E 004°53'0 0.0
2015-May-29 13:32N 43°26' E 004°53'0 0.0
2015-May-29 12:32N 43°26' E 004°53'3 2.6
2015-May-29 11:32N 43°25' E 004°57'0 0.0
2015-May-29 10:32N 43°25' E 004°57'0 0.0
2015-May-29 09:29N 43°25' E 004°57'0 0.0
2015-May-29 08:32N 43°25' E 004°57'0 0.0
2015-May-29 07:32N 43°25' E 004°57'0 0.0
2015-May-29 06:32N 43°25' E 004°57'0 0.0
2015-May-29 05:32N 43°25' E 004°57'0 0.0
2015-May-29 04:32N 43°25' E 004°57'0 0.0
2015-May-29 03:32N 43°25' E 004°57'0 0.0
2015-May-29 02:32N 43°25' E 004°57'0 0.0
2015-May-29 01:32N 43°25' E 004°57'0 0.0
2015-May-29 00:32N 43°25' E 004°57'0 0.0
2015-May-28 23:32N 43°25' E 004°57'0 0.0
2015-May-28 22:32N 43°25' E 004°57'0 0.0
2015-May-28 21:32N 43°25' E 004°57'0 0.1
2015-May-28 20:32N 43°25' E 004°57'0 0.0
2015-May-28 19:32N 43°25' E 004°57'0 0.0
2015-May-28 18:32N 43°25' E 004°57'0 0.0
2015-May-28 17:32N 43°25' E 004°57'0 0.0
2015-May-28 16:32N 43°25' E 004°57'0 0.0
2015-May-28 15:32N 43°25' E 004°57'0 0.0
2015-May-28 14:32N 43°25' E 004°57'0 0.0
2015-May-28 13:32N 43°25' E 004°57'0 0.0
2015-May-28 12:32N 43°25' E 004°57'0 0.0
2015-May-28 11:32N 43°25' E 004°57'0 0.0
2015-May-28 10:32N 43°25' E 004°57'0 0.1
2015-May-28 09:32N 43°24' E 004°57'0 0.0
2015-May-28 08:32N 43°24' E 004°57'0 0.0
2015-May-28 07:32N 43°24' E 004°57'0 0.0
2015-May-28 06:32N 43°24' E 004°57'0 0.0
2015-May-28 05:29N 43°24' E 004°57'0 0.0
2015-May-28 04:32N 43°24' E 004°57'0 0.0
2015-May-28 03:32N 43°24' E 004°57'0 0.0
2015-May-28 02:32N 43°24' E 004°57'0 0.1
2015-May-28 01:32N 43°24' E 004°57'7 6.7
2015-May-28 00:33N 43°18' E 004°60'8 8.1
2015-May-27 23:33N 43°10' E 005°01'1111.2
2015-May-27 22:33N 43°02' E 004°50'1110.9
2015-May-27 21:33N 42°54' E 004°40'184 3.9
2015-May-25 22:18N 40°55' E 001°31'910.1
2015-May-25 21:24N 41°00' E 001°41'19110.4
2015-May-25 03:06N 43°11' E 004°47'610.5
2015-May-25 02:33N 43°16' E 004°52'9 8.5
2015-May-25 01:33N 43°24' E 004°53'1 0.6
2015-May-24 23:17N 43°26' E 004°53'0 0.0
2015-May-24 18:11N 43°26' E 004°53'0 0.0
2015-May-24 17:23N 43°26' E 004°53'0 0.0
2015-May-24 16:23N 43°26' E 004°53'0 0.0
2015-May-24 12:11N 43°26' E 004°53'0 0.0
2015-May-23 19:05N 43°26' E 004°53'1 0.3
2015-May-23 15:33N 43°25' E 004°53'6 6.4
2015-May-23 14:33N 43°19' E 004°57'  
2015-May-20 10:26N 43°20' E 004°56'6 2.6
2015-May-20 08:19N 43°26' E 004°54'  

Dump ship's entire track history